createdAt,value
2019-01-13T00:01:14.605Z,-1.17
2019-01-13T00:03:44.924Z,-1.11
2019-01-13T00:06:15.219Z,-1.13
2019-01-13T00:08:45.968Z,-1.01
2019-01-13T00:11:16.431Z,-1.10
2019-01-13T00:13:46.998Z,-1.10
2019-01-13T00:16:17.756Z,-0.91
2019-01-13T00:18:48.310Z,-0.91
2019-01-13T00:21:18.607Z,-0.81
2019-01-13T00:23:49.280Z,-0.68
2019-01-13T00:26:19.787Z,-0.55
2019-01-13T00:28:50.172Z,-0.74
2019-01-13T00:31:20.590Z,-0.60
2019-01-13T00:33:50.885Z,-0.58
2019-01-13T00:36:21.525Z,-0.41
2019-01-13T00:38:52.099Z,-0.36
2019-01-13T00:41:22.548Z,-0.56
2019-01-13T00:43:53.361Z,-0.37
2019-01-13T00:46:23.780Z,-0.42
2019-01-13T00:48:53.985Z,-0.24
2019-01-13T00:51:24.443Z,-0.22
2019-01-13T00:53:55.095Z,-0.25
2019-01-13T00:56:25.550Z,-0.22
2019-01-13T00:58:56.043Z,-0.24
2019-01-13T01:01:26.932Z,-0.26
2019-01-13T01:03:57.214Z,-0.27
2019-01-13T01:06:28.243Z,-0.36
2019-01-13T01:08:58.624Z,-0.48
2019-01-13T01:11:29.161Z,-0.68
2019-01-13T01:13:59.548Z,-0.66
2019-01-13T01:16:29.853Z,-0.54
2019-01-13T01:19:00.156Z,-0.38
2019-01-13T01:21:31.108Z,-0.40
2019-01-13T01:24:01.503Z,-0.51
2019-01-13T01:26:31.797Z,-0.39
2019-01-13T01:29:02.610Z,-0.39
2019-01-13T01:31:33.095Z,-0.47
2019-01-13T01:34:03.424Z,-0.39
2019-01-13T01:36:34.020Z,-0.42
2019-01-13T01:39:07.071Z,-0.45
2019-01-13T01:41:37.821Z,-0.46
2019-01-13T01:44:08.136Z,-0.43
2019-01-13T01:46:38.407Z,-0.47
2019-01-13T01:49:09.061Z,-0.52
2019-01-13T01:51:39.624Z,-0.53
2019-01-13T01:54:09.953Z,-0.52
2019-01-13T01:56:40.595Z,-0.55
2019-01-13T01:59:11.371Z,-0.76
2019-01-13T02:01:41.743Z,-0.77
2019-01-13T02:04:12.741Z,-0.95
2019-01-13T02:06:43.538Z,-0.93
2019-01-13T02:09:14.787Z,-0.95
2019-01-13T02:11:45.348Z,-1.06
2019-01-13T02:14:15.639Z,-0.91
2019-01-13T02:16:46.016Z,-1.05
2019-01-13T02:19:16.747Z,-1.20
2019-01-13T02:21:47.055Z,-1.08
2019-01-13T02:24:17.541Z,-1.14
2019-01-13T02:26:48.180Z,-1.31
2019-01-13T02:29:18.652Z,-1.37
2019-01-13T02:31:49.138Z,-1.43
2019-01-13T02:34:19.958Z,-1.47
2019-01-13T02:36:50.360Z,-1.42
2019-01-13T02:39:20.917Z,-1.65
2019-01-13T02:41:51.565Z,-1.64
2019-01-13T02:44:22.363Z,-1.73
2019-01-13T02:46:52.744Z,-1.71
2019-01-13T02:49:23.064Z,-1.49
2019-01-13T02:51:53.639Z,-1.62
2019-01-13T02:54:24.371Z,-1.58
2019-01-13T02:56:54.695Z,-1.57
2019-01-13T02:59:25.169Z,-1.59
2019-01-13T03:01:55.809Z,-1.61
2019-01-13T03:04:26.135Z,-1.38
2019-01-13T03:06:57.669Z,-1.39
2019-01-13T03:09:28.520Z,-1.43
2019-01-13T03:11:58.913Z,-1.41
2019-01-13T03:14:29.180Z,-1.35
2019-01-13T03:16:59.588Z,-1.39
2019-01-13T03:19:30.391Z,-1.33
2019-01-13T03:22:00.915Z,-1.42
2019-01-13T03:24:31.492Z,-1.18
2019-01-13T03:27:02.298Z,-1.13
2019-01-13T03:29:32.748Z,-1.32
2019-01-13T03:32:03.467Z,-1.09
2019-01-13T03:34:34.117Z,-1.05
2019-01-13T03:37:04.631Z,-1.11
2019-01-13T03:39:34.937Z,-1.13
2019-01-13T03:42:05.722Z,-1.15
2019-01-13T03:44:36.058Z,-1.01
2019-01-13T03:47:06.817Z,-1.03
2019-01-13T03:49:37.106Z,-1.11
2019-01-13T03:52:07.914Z,-1.12
2019-01-13T03:54:38.757Z,-1.05
2019-01-13T03:57:09.274Z,-1.26
2019-01-13T03:59:39.741Z,-0.99
2019-01-13T04:02:10.392Z,-1.17
2019-01-13T04:04:40.792Z,-1.09
2019-01-13T04:07:11.285Z,-0.82
2019-01-13T04:09:42.060Z,-1.05
2019-01-13T04:12:12.484Z,-0.86
2019-01-13T04:14:42.786Z,-1.02
2019-01-13T04:17:14.091Z,-1.04
2019-01-13T04:19:44.389Z,-1.15
2019-01-13T04:22:15.168Z,-0.95
2019-01-13T04:24:45.541Z,-1.00
2019-01-13T04:27:15.868Z,-1.19
2019-01-13T04:29:46.620Z,-1.08
2019-01-13T04:32:17.308Z,-0.97
2019-01-13T04:34:47.572Z,-1.06
2019-01-13T04:37:18.240Z,-1.25
2019-01-13T04:39:48.606Z,-1.06
2019-01-13T04:42:18.892Z,-1.25
2019-01-13T04:44:49.459Z,-0.95
2019-01-13T04:47:20.110Z,-1.13
2019-01-13T04:49:50.566Z,-0.96
2019-01-13T04:52:21.055Z,-0.83
2019-01-13T04:54:51.352Z,-0.88
2019-01-13T04:57:22.234Z,-0.71
2019-01-13T04:59:52.956Z,-0.90
2019-01-13T05:02:23.289Z,-0.76
2019-01-13T05:04:54.122Z,-1.03
2019-01-13T05:07:24.797Z,-1.00
2019-01-13T05:09:55.087Z,-0.99
2019-01-13T05:12:25.610Z,-0.69
2019-01-13T05:14:56.250Z,-0.59
2019-01-13T05:17:26.735Z,-0.76
2019-01-13T05:19:57.055Z,-0.94
2019-01-13T05:22:27.661Z,-0.79
2019-01-13T05:24:57.963Z,-1.03
2019-01-13T05:27:28.312Z,-0.71
2019-01-13T05:29:59.348Z,-0.63
2019-01-13T05:32:29.722Z,-0.56
2019-01-13T05:35:00.060Z,-0.56
2019-01-13T05:37:30.674Z,-0.60
2019-01-13T05:40:01.031Z,-0.50
2019-01-13T05:42:31.358Z,-0.37
2019-01-13T05:45:01.744Z,-0.37
2019-01-13T05:47:32.613Z,-0.36
2019-01-13T05:50:03.026Z,-0.26
2019-01-13T05:52:33.560Z,-0.10
2019-01-13T05:55:04.076Z,-0.13
2019-01-13T05:57:34.568Z,-0.11
2019-01-13T06:00:07.196Z,-0.13
2019-01-13T06:02:37.507Z,-0.14
2019-01-13T06:05:08.735Z,-0.04
2019-01-13T06:07:39.344Z,-0.14
2019-01-13T06:10:11.312Z,-0.29
2019-01-13T06:12:41.658Z,-0.04
2019-01-13T06:15:15.389Z,0.13
2019-01-13T06:17:45.693Z,-0.15
2019-01-13T06:20:18.078Z,0.12
2019-01-13T06:22:48.742Z,-0.09
2019-01-13T06:25:19.353Z,-0.15
2019-01-13T06:27:50.101Z,0.11
2019-01-13T06:30:22.669Z,0.08
2019-01-13T06:32:53.112Z,0.09
2019-01-13T06:35:23.621Z,0.13
2019-01-13T06:37:57.063Z,0.09
2019-01-13T06:40:27.373Z,0.20
2019-01-13T06:42:57.769Z,0.21
2019-01-13T06:45:28.578Z,0.18
2019-01-13T06:47:58.891Z,0.33
2019-01-13T06:50:30.457Z,0.13
2019-01-13T06:53:01.208Z,0.16
2019-01-13T06:55:32.016Z,0.10
2019-01-13T06:58:02.753Z,0.09
2019-01-13T07:00:34.325Z,0.15
2019-01-13T07:03:05.403Z,0.35
2019-01-13T07:05:35.966Z,0.20
2019-01-13T07:08:06.361Z,0.45
2019-01-13T07:10:36.906Z,0.50
2019-01-13T07:13:07.251Z,0.51
2019-01-13T07:15:37.549Z,0.39
2019-01-13T07:18:08.118Z,0.25
2019-01-13T07:20:38.725Z,0.48
2019-01-13T07:23:09.073Z,0.62
2019-01-13T07:25:39.594Z,0.94
2019-01-13T07:28:10.009Z,1.00
2019-01-13T07:30:40.384Z,1.33
2019-01-13T07:33:11.151Z,1.69
2019-01-13T07:35:41.667Z,1.77
2019-01-13T07:38:11.968Z,1.89
2019-01-13T07:40:42.402Z,1.82
2019-01-13T07:43:13.068Z,1.87
2019-01-13T07:45:43.394Z,1.74
2019-01-13T07:48:15.716Z,1.64
2019-01-13T07:50:46.211Z,1.60
2019-01-13T07:53:16.504Z,1.52
2019-01-13T07:55:46.833Z,1.48
2019-01-13T07:58:17.649Z,1.14
2019-01-13T08:00:48.172Z,0.94
2019-01-13T08:03:18.588Z,0.92
2019-01-13T08:05:48.867Z,0.89
2019-01-13T08:08:19.203Z,0.83
2019-01-13T08:10:49.596Z,0.66
2019-01-13T08:13:19.944Z,0.63
2019-01-13T08:15:50.255Z,0.49
2019-01-13T08:18:21.039Z,0.53
2019-01-13T08:20:51.427Z,0.66
2019-01-13T08:23:21.816Z,0.68
2019-01-13T08:25:52.540Z,0.75
2019-01-13T08:28:23.210Z,0.81
2019-01-13T08:30:53.690Z,0.83
2019-01-13T08:33:24.293Z,0.87
2019-01-13T08:35:54.607Z,0.77
2019-01-13T08:38:25.029Z,0.89
2019-01-13T08:40:55.362Z,1.09
2019-01-13T08:43:25.829Z,1.15
2019-01-13T08:45:56.434Z,1.30
2019-01-13T08:48:27.237Z,1.46
2019-01-13T08:50:57.571Z,1.74
2019-01-13T08:53:28.251Z,1.80
2019-01-13T08:55:59.006Z,1.99
2019-01-13T08:58:29.481Z,2.13
2019-01-13T09:01:00.071Z,2.18
2019-01-13T09:03:30.898Z,2.27
2019-01-13T09:06:01.508Z,2.36
2019-01-13T09:08:32.265Z,2.51
2019-01-13T09:11:02.787Z,2.45
2019-01-13T09:13:33.436Z,2.29
2019-01-13T09:16:04.287Z,2.09
2019-01-13T09:18:34.833Z,2.76
2019-01-13T09:21:05.546Z,2.96
2019-01-13T09:23:36.193Z,2.93
2019-01-13T09:26:06.511Z,3.20
2019-01-13T09:28:37.253Z,3.38
2019-01-13T09:31:07.902Z,3.63
2019-01-13T09:33:38.346Z,3.75
2019-01-13T09:36:08.938Z,4.00
2019-01-13T09:38:39.753Z,4.14
2019-01-13T09:41:10.220Z,4.71
2019-01-13T09:43:41.879Z,5.02
2019-01-13T09:46:12.811Z,5.31
2019-01-13T09:48:43.152Z,4.68
2019-01-13T09:51:13.890Z,5.33
2019-01-13T09:53:44.351Z,5.82
2019-01-13T09:56:14.746Z,6.24
2019-01-13T09:58:45.652Z,6.32
2019-01-13T10:01:16.261Z,6.31
2019-01-13T10:03:46.585Z,6.61
2019-01-13T10:06:17.370Z,7.06
2019-01-13T10:08:48.133Z,7.33
2019-01-13T10:11:18.546Z,7.57
2019-01-13T10:13:49.004Z,7.81
2019-01-13T10:16:19.314Z,7.66
2019-01-13T10:18:50.038Z,7.51
2019-01-13T10:21:20.411Z,7.57
2019-01-13T10:23:50.754Z,7.60
2019-01-13T10:26:22.585Z,7.59
2019-01-13T10:28:53.362Z,7.50
2019-01-13T10:31:24.080Z,7.37
2019-01-13T10:33:54.955Z,7.34
2019-01-13T10:36:25.830Z,7.14
2019-01-13T10:38:56.134Z,6.86
2019-01-13T10:41:27.674Z,6.67
2019-01-13T10:43:58.304Z,6.83
2019-01-13T10:46:29.050Z,6.56
2019-01-13T10:48:59.529Z,6.38
2019-01-13T10:51:29.850Z,6.25
2019-01-13T10:54:00.214Z,6.25
2019-01-13T10:56:30.750Z,6.26
2019-01-13T10:59:01.081Z,6.50
2019-01-13T11:01:31.516Z,6.60
2019-01-13T11:04:02.172Z,6.61
2019-01-13T11:06:32.521Z,6.56
2019-01-13T11:09:04.495Z,6.19
2019-01-13T11:11:35.217Z,6.12
2019-01-13T11:14:06.585Z,5.94
2019-01-13T11:16:37.263Z,5.74
2019-01-13T11:19:07.572Z,5.54
2019-01-13T11:21:37.931Z,5.49
2019-01-13T11:24:08.719Z,5.18
2019-01-13T11:26:39.215Z,5.13
2019-01-13T11:29:09.850Z,5.15
2019-01-13T11:31:40.621Z,5.12
2019-01-13T11:34:11.110Z,5.09
2019-01-13T11:36:41.393Z,4.87
2019-01-13T11:39:12.219Z,4.69
2019-01-13T11:41:42.671Z,4.53
2019-01-13T11:44:13.417Z,4.56
2019-01-13T11:46:44.098Z,3.89
2019-01-13T11:49:14.846Z,3.72
2019-01-13T11:51:45.167Z,3.73
2019-01-13T11:54:15.696Z,3.55
2019-01-13T11:56:46.511Z,3.56
2019-01-13T11:59:16.815Z,3.33
2019-01-13T12:01:47.288Z,3.48
2019-01-13T12:04:18.025Z,3.43
2019-01-13T12:06:48.368Z,3.28
2019-01-13T12:09:19.646Z,3.45
2019-01-13T12:11:50.467Z,3.46
2019-01-13T12:14:20.824Z,3.39
2019-01-13T12:16:51.336Z,3.24
2019-01-13T12:19:22.003Z,3.23
2019-01-13T12:21:52.504Z,3.15
2019-01-13T12:24:23.101Z,3.22
2019-01-13T12:26:53.530Z,3.23
2019-01-13T12:29:24.119Z,2.81
2019-01-13T12:31:54.889Z,2.86
2019-01-13T12:34:25.173Z,2.83
2019-01-13T12:36:55.500Z,3.09
2019-01-13T12:39:25.956Z,3.03
2019-01-13T12:41:56.470Z,3.11
2019-01-13T12:44:26.853Z,2.71
2019-01-13T12:46:57.438Z,2.76
2019-01-13T12:49:28.048Z,2.86
2019-01-13T12:51:58.613Z,2.85
2019-01-13T12:54:29.043Z,2.80
2019-01-13T12:56:59.405Z,2.75
2019-01-13T12:59:30.235Z,2.55
2019-01-13T13:02:00.803Z,2.83
2019-01-13T13:04:31.103Z,2.61
2019-01-13T13:07:02.054Z,2.87
2019-01-13T13:09:32.835Z,2.99
2019-01-13T13:12:03.133Z,3.14
2019-01-13T13:14:33.856Z,3.38
2019-01-13T13:17:04.323Z,3.09
2019-01-13T13:19:34.636Z,3.20
2019-01-13T13:22:05.107Z,3.57
2019-01-13T13:24:35.510Z,3.82
2019-01-13T13:27:06.605Z,3.75
2019-01-13T13:29:37.274Z,3.41
2019-01-13T13:32:07.611Z,3.52
2019-01-13T13:34:38.324Z,3.57
2019-01-13T13:37:09.237Z,3.56
2019-01-13T13:39:39.528Z,4.02
2019-01-13T13:42:10.062Z,3.99
2019-01-13T13:44:40.845Z,3.89
2019-01-13T13:47:11.383Z,3.75
2019-01-13T13:49:41.719Z,3.69
2019-01-13T13:52:12.163Z,3.63
2019-01-13T13:54:42.574Z,3.51
2019-01-13T13:57:13.346Z,3.38
2019-01-13T13:59:43.630Z,3.30
2019-01-13T14:02:14.420Z,3.19
2019-01-13T14:04:45.199Z,3.07
2019-01-13T14:07:15.495Z,2.80
2019-01-13T14:09:45.815Z,2.59
2019-01-13T14:12:16.478Z,2.59
2019-01-13T14:14:46.831Z,2.48
2019-01-13T14:17:17.390Z,2.33
2019-01-13T14:19:48.126Z,2.03
2019-01-13T14:22:18.648Z,1.71
2019-01-13T14:24:49.305Z,1.61
2019-01-13T14:27:19.954Z,1.43
2019-01-13T14:29:50.306Z,1.61
2019-01-13T14:32:21.085Z,1.52
2019-01-13T14:34:51.442Z,1.59
2019-01-13T14:37:21.767Z,1.51
2019-01-13T14:39:52.547Z,1.22
2019-01-13T14:42:23.039Z,1.44
2019-01-13T14:44:53.375Z,1.28
2019-01-13T14:47:23.974Z,1.39
2019-01-13T14:49:55.322Z,1.44
2019-01-13T14:52:25.647Z,1.36
2019-01-13T14:54:56.373Z,1.28
2019-01-13T14:57:27.148Z,1.42
2019-01-13T14:59:57.527Z,1.56
2019-01-13T15:02:28.098Z,1.61
2019-01-13T15:04:58.518Z,1.72
2019-01-13T15:07:29.262Z,1.70
2019-01-13T15:09:59.943Z,1.75
2019-01-13T15:12:30.321Z,1.68
2019-01-13T15:15:00.903Z,1.77
2019-01-13T15:17:31.279Z,1.78
2019-01-13T15:20:01.784Z,1.76
2019-01-13T15:22:32.195Z,1.80
2019-01-13T15:25:03.016Z,1.84
2019-01-13T15:27:33.461Z,1.83
2019-01-13T15:30:05.717Z,1.80
2019-01-13T15:32:36.182Z,1.78
2019-01-13T15:35:07.144Z,1.72
2019-01-13T15:37:37.766Z,1.79
2019-01-13T15:40:09.914Z,1.70
2019-01-13T15:42:40.478Z,1.68
2019-01-13T15:45:12.140Z,1.75
2019-01-13T15:47:42.518Z,1.75
2019-01-13T15:50:18.640Z,1.72
2019-01-13T15:52:49.347Z,1.67
2019-01-13T15:55:19.884Z,1.66
2019-01-13T15:57:50.593Z,1.62
2019-01-13T16:00:23.329Z,1.59
2019-01-13T16:02:53.767Z,1.73
2019-01-13T16:05:24.131Z,1.67
2019-01-13T16:07:55.068Z,1.58
2019-01-13T16:10:27.064Z,1.48
2019-01-13T16:12:57.359Z,1.35
2019-01-13T16:15:33.924Z,1.28
2019-01-13T16:17:59.892Z,1.10
2019-01-13T16:20:43.670Z,1.20
2019-01-13T16:23:14.341Z,1.33
2019-01-13T16:25:45.165Z,1.32
2019-01-13T16:28:15.497Z,1.32
2019-01-13T16:30:46.248Z,1.34
2019-01-13T16:33:16.786Z,1.26
2019-01-13T16:35:47.191Z,1.48
2019-01-13T16:38:17.889Z,1.38
2019-01-13T16:40:48.275Z,1.27
2019-01-13T16:43:18.658Z,1.30
2019-01-13T16:45:49.222Z,1.05
2019-01-13T16:48:19.569Z,1.09
2019-01-13T16:50:50.234Z,1.29
2019-01-13T16:53:20.982Z,1.24
2019-01-13T16:55:51.826Z,1.07
2019-01-13T16:58:22.274Z,1.25
2019-01-13T17:00:53.089Z,1.61
2019-01-13T17:03:23.529Z,1.74
2019-01-13T17:05:53.875Z,1.86
2019-01-13T17:08:24.610Z,1.97
2019-01-13T17:10:55.197Z,1.90
2019-01-13T17:13:25.873Z,1.85
2019-01-13T17:15:56.193Z,2.10
2019-01-13T17:18:26.483Z,2.05
2019-01-13T17:20:57.338Z,2.14
2019-01-13T17:23:27.850Z,2.00
2019-01-13T17:25:58.278Z,2.06
2019-01-13T17:28:28.959Z,2.15
2019-01-13T17:30:59.875Z,2.07
2019-01-13T17:33:30.336Z,2.06
2019-01-13T17:36:01.151Z,2.04
2019-01-13T17:38:31.786Z,2.00
2019-01-13T17:41:02.307Z,2.03
2019-01-13T17:43:32.740Z,2.01
2019-01-13T17:46:03.107Z,2.01
2019-01-13T17:48:33.801Z,2.00
2019-01-13T17:51:04.718Z,2.03
2019-01-13T17:53:35.023Z,2.03
2019-01-13T17:56:05.752Z,1.98
2019-01-13T17:58:36.534Z,2.09
2019-01-13T18:01:20.284Z,2.15
2019-01-13T18:03:50.937Z,2.14
2019-01-13T18:06:21.591Z,1.98
2019-01-13T18:08:51.894Z,1.78
2019-01-13T18:11:22.498Z,1.85
2019-01-13T18:13:52.980Z,1.72
2019-01-13T18:16:23.775Z,1.72
2019-01-13T18:18:54.413Z,1.84
2019-01-13T18:21:24.778Z,1.78
2019-01-13T18:23:55.156Z,1.66
2019-01-13T18:26:25.847Z,1.60
2019-01-13T18:28:56.159Z,1.58
2019-01-13T18:31:27.642Z,1.76
2019-01-13T18:33:58.276Z,1.77
2019-01-13T18:36:28.602Z,1.65
2019-01-13T18:38:58.916Z,1.78
2019-01-13T18:41:29.396Z,1.65
2019-01-13T18:43:59.704Z,1.90
2019-01-13T18:46:30.198Z,1.70
2019-01-13T18:49:00.538Z,1.85
2019-01-13T18:51:30.892Z,1.74
2019-01-13T18:54:01.493Z,1.85
2019-01-13T18:56:32.205Z,1.83
2019-01-13T18:59:02.509Z,1.73
2019-01-13T19:01:33.395Z,1.81
2019-01-13T19:04:03.881Z,1.76
2019-01-13T19:06:34.236Z,1.83
2019-01-13T19:09:08.591Z,1.93
2019-01-13T19:11:42.463Z,1.82
2019-01-13T19:14:39.942Z,2.00
2019-01-13T19:17:14.972Z,2.04
2019-01-13T19:19:59.481Z,2.13
2019-01-13T19:22:31.760Z,2.09
2019-01-13T19:25:14.333Z,1.99
2019-01-13T19:27:45.218Z,2.04
2019-01-13T19:30:17.613Z,1.96
2019-01-13T19:32:48.310Z,1.89
2019-01-13T19:35:18.822Z,2.21
2019-01-13T19:37:49.594Z,2.04
2019-01-13T19:40:20.377Z,2.00
2019-01-13T19:42:50.762Z,1.98
2019-01-13T19:45:22.307Z,1.91
2019-01-13T19:47:53.173Z,-0.03
2019-01-13T19:50:26.278Z,2.04
2019-01-13T19:52:56.873Z,1.75
2019-01-13T19:55:27.212Z,1.42
2019-01-13T19:57:58.171Z,1.29
2019-01-13T20:00:31.629Z,1.58
2019-01-13T20:03:02.157Z,1.67
2019-01-13T20:05:32.520Z,1.31
2019-01-13T20:08:03.456Z,1.41
2019-01-13T20:10:33.816Z,1.29
2019-01-13T20:13:04.675Z,1.12
2019-01-13T20:15:35.289Z,1.38
2019-01-13T20:18:05.612Z,1.39
2019-01-13T20:20:35.995Z,1.52
2019-01-13T20:23:06.934Z,1.56
2019-01-13T20:25:38.492Z,1.59
2019-01-13T20:28:09.094Z,1.54
2019-01-13T20:30:39.783Z,1.55
2019-01-13T20:33:10.413Z,1.36
2019-01-13T20:35:40.698Z,1.18
2019-01-13T20:38:11.407Z,1.13
2019-01-13T20:40:41.826Z,1.11
2019-01-13T20:43:12.297Z,0.60
2019-01-13T20:45:43.484Z,0.69
2019-01-13T20:48:14.000Z,0.63
2019-01-13T20:50:44.435Z,0.79
2019-01-13T20:53:15.046Z,0.75
2019-01-13T20:55:45.661Z,0.67
2019-01-13T20:58:16.451Z,-1.44
2019-01-13T21:00:47.053Z,0.31
2019-01-13T21:03:17.375Z,0.33
2019-01-13T21:05:48.176Z,0.36
2019-01-13T21:08:18.735Z,0.32
2019-01-13T21:10:49.149Z,0.04
2019-01-13T21:13:19.592Z,0.16
2019-01-13T21:15:50.429Z,0.07
2019-01-13T21:18:20.727Z,-0.01
2019-01-13T21:20:51.246Z,-0.06
2019-01-13T21:23:21.859Z,-0.25
2019-01-13T21:25:53.440Z,-0.35
2019-01-13T21:28:24.205Z,-0.38
2019-01-13T21:30:54.506Z,-0.35
2019-01-13T21:33:24.968Z,-0.45
2019-01-13T21:35:55.647Z,-0.49
2019-01-13T21:38:26.003Z,-0.48
2019-01-13T21:40:56.509Z,-0.59
2019-01-13T21:43:27.462Z,-0.57
2019-01-13T21:45:58.030Z,-0.63
2019-01-13T21:48:28.340Z,-0.72
2019-01-13T21:50:59.018Z,-0.72
2019-01-13T21:53:29.643Z,-0.70
2019-01-13T21:55:59.944Z,-1.20
2019-01-13T21:58:30.801Z,-1.01
2019-01-13T22:01:01.104Z,-1.32
2019-01-13T22:03:32.753Z,-1.11
2019-01-13T22:06:03.132Z,-1.16
2019-01-13T22:08:33.423Z,-1.16
2019-01-13T22:11:04.811Z,-0.94
2019-01-13T22:13:35.510Z,-0.87
2019-01-13T22:16:05.982Z,-1.15
2019-01-13T22:18:36.511Z,-1.52
2019-01-13T22:21:07.480Z,-1.32
2019-01-13T22:23:37.819Z,-1.49
2019-01-13T22:26:08.334Z,-1.51
2019-01-13T22:28:39.032Z,-1.69
2019-01-13T22:31:09.433Z,-1.72
2019-01-13T22:33:40.079Z,-1.23
2019-01-13T22:36:10.358Z,-1.23
2019-01-13T22:38:40.749Z,-1.31
2019-01-13T22:41:11.556Z,-1.30
2019-01-13T22:43:41.878Z,-1.38
2019-01-13T22:46:12.363Z,-1.52
2019-01-13T22:48:44.186Z,-1.65
2019-01-13T22:51:14.494Z,-1.79
2019-01-13T22:53:44.812Z,-2.05
2019-01-13T22:56:16.504Z,-2.05
2019-01-13T22:58:46.851Z,-1.79
2019-01-13T23:01:35.710Z,-1.76
2019-01-13T23:04:08.840Z,-1.71
2019-01-13T23:06:39.217Z,-1.62
2019-01-13T23:09:10.752Z,-1.61
2019-01-13T23:11:41.819Z,-1.55
2019-01-13T23:14:14.054Z,-1.61
2019-01-13T23:16:44.798Z,-1.87
2019-01-13T23:19:15.118Z,-1.92
2019-01-13T23:21:45.772Z,-1.79
2019-01-13T23:24:16.557Z,-1.63
2019-01-13T23:26:47.030Z,-1.64
2019-01-13T23:29:17.670Z,-1.87
2019-01-13T23:31:48.343Z,-2.21
2019-01-13T23:34:18.702Z,-1.92
2019-01-13T23:36:49.085Z,-2.40
2019-01-13T23:39:19.402Z,-2.07
2019-01-13T23:41:49.796Z,-2.22
2019-01-13T23:44:20.537Z,-2.31
2019-01-13T23:46:51.066Z,-2.06
2019-01-13T23:49:21.364Z,-2.06
2019-01-13T23:51:52.162Z,-2.21
2019-01-13T23:54:22.853Z,-2.15
2019-01-13T23:56:53.206Z,-2.47
2019-01-13T23:59:23.908Z,-2.41
